createdAt,value
2023-04-29T00:01:31.351Z,10.68
2023-04-29T00:06:33.696Z,8.43
2023-04-29T00:11:32.924Z,7.70
2023-04-29T00:16:31.309Z,8.15
2023-04-29T00:21:32.973Z,9.10
2023-04-29T00:26:30.343Z,8.32
2023-04-29T00:31:27.718Z,10.10
2023-04-29T00:36:25.872Z,8.20
2023-04-29T00:41:26.918Z,9.45
2023-04-29T00:46:27.497Z,11.15
2023-04-29T00:51:54.276Z,9.02
2023-04-29T00:56:59.010Z,9.07
2023-04-29T01:01:56.750Z,6.40
2023-04-29T01:07:08.454Z,7.28
2023-04-29T01:12:31.070Z,6.40
2023-04-29T01:17:44.136Z,7.77
2023-04-29T01:22:44.648Z,7.65
2023-04-29T01:27:52.950Z,6.65
2023-04-29T01:32:58.253Z,8.50
2023-04-29T01:38:02.976Z,7.53
2023-04-29T01:43:11.319Z,5.63
2023-04-29T01:48:14.075Z,6.97
2023-04-29T01:53:12.309Z,6.95
2023-04-29T01:58:13.722Z,6.78
2023-04-29T02:03:22.107Z,8.98
2023-04-29T02:08:26.761Z,8.20
2023-04-29T02:13:33.178Z,8.98
2023-04-29T02:18:33.895Z,8.30
2023-04-29T02:23:31.499Z,5.20
2023-04-29T02:28:31.190Z,5.97
2023-04-29T02:33:31.292Z,8.73
2023-04-29T02:38:45.569Z,8.38
2023-04-29T02:43:44.067Z,5.03
2023-04-29T02:48:44.052Z,7.45
2023-04-29T02:53:49.046Z,5.50
2023-04-29T02:58:47.191Z,11.32
2023-04-29T03:03:52.465Z,10.00
2023-04-29T03:09:02.836Z,9.55
2023-04-29T03:14:17.928Z,9.18
2023-04-29T03:19:18.823Z,5.57
2023-04-29T03:24:18.851Z,10.80
2023-04-29T03:29:17.158Z,6.93
2023-04-29T03:34:14.759Z,8.50
2023-04-29T03:39:17.615Z,6.88
2023-04-29T03:44:25.686Z,8.00
2023-04-29T03:49:35.241Z,5.00
2023-04-29T03:54:35.275Z,7.97
2023-04-29T03:59:32.649Z,6.78
2023-04-29T04:04:36.064Z,10.20
2023-04-29T04:09:37.894Z,8.38
2023-04-29T04:14:39.526Z,4.30
2023-04-29T04:20:02.290Z,6.38
2023-04-29T04:25:49.875Z,8.82
2023-04-29T04:31:11.102Z,10.82
2023-04-29T04:36:18.513Z,8.43
2023-04-29T04:41:18.083Z,6.50
2023-04-29T04:46:19.354Z,9.82
2023-04-29T04:51:53.434Z,8.50
2023-04-29T04:57:00.571Z,9.07
2023-04-29T05:02:09.316Z,7.38
2023-04-29T05:07:08.731Z,14.32
2023-04-29T05:12:53.922Z,7.50
2023-04-29T05:17:55.380Z,8.88
2023-04-29T05:23:10.356Z,10.25
2023-04-29T05:28:20.546Z,7.25
2023-04-29T05:33:20.759Z,7.95
2023-04-29T05:38:29.830Z,5.57
2023-04-29T05:43:44.993Z,7.50
2023-04-29T05:49:03.448Z,7.95
2023-04-29T05:54:16.316Z,6.90
2023-04-29T05:59:27.042Z,4.60
2023-04-29T06:04:55.764Z,5.47
2023-04-29T06:11:00.704Z,6.03
2023-04-29T06:16:30.837Z,4.55
2023-04-29T06:21:54.817Z,6.28
2023-04-29T06:27:04.991Z,4.40
2023-04-29T06:32:20.130Z,6.50
2023-04-29T06:38:19.097Z,7.57
2023-04-29T06:49:09.502Z,7.15
2023-04-29T06:54:11.952Z,7.15
2023-04-29T07:00:35.326Z,7.68
2023-04-29T07:18:04.068Z,5.28
2023-04-29T07:23:22.569Z,6.97
2023-04-29T07:28:52.198Z,5.28
2023-04-29T07:34:34.128Z,5.10
2023-04-29T07:39:50.968Z,4.28
2023-04-29T07:45:03.601Z,4.78
2023-04-29T07:57:02.448Z,6.63
2023-04-29T08:02:19.333Z,6.80
2023-04-29T08:08:04.416Z,6.25
2023-04-29T08:27:00.455Z,4.63
2023-04-29T08:32:19.905Z,7.18
2023-04-29T08:43:58.864Z,4.68
2023-04-29T09:03:31.233Z,5.97
2023-04-29T09:44:32.098Z,6.38
2023-04-29T09:51:01.041Z,4.97
2023-04-29T10:04:38.821Z,4.75
2023-04-29T10:55:55.789Z,5.00
2023-04-29T11:29:59.132Z,6.18
2023-04-29T11:35:19.928Z,7.82
2023-04-29T11:40:21.375Z,6.90
2023-04-29T11:45:37.302Z,4.88
2023-04-29T11:50:47.260Z,5.97
2023-04-29T11:55:46.948Z,4.43
2023-04-29T12:01:43.979Z,5.97
2023-04-29T12:14:01.208Z,6.28
2023-04-29T12:26:47.950Z,4.28
2023-04-29T12:38:21.984Z,6.05
2023-04-29T14:01:05.110Z,9.00
2023-04-29T14:05:58.633Z,7.30
2023-04-29T14:10:55.471Z,10.43
2023-04-29T14:15:56.121Z,5.93
2023-04-29T14:20:54.072Z,5.97
2023-04-29T14:25:51.447Z,3.92
2023-04-29T14:30:48.231Z,5.78
2023-04-29T14:35:46.290Z,4.18
2023-04-29T14:40:43.038Z,4.45
2023-04-29T14:45:40.455Z,4.13
2023-04-29T14:50:37.650Z,4.25
2023-04-29T14:55:35.064Z,6.13
2023-04-29T15:00:31.800Z,4.90
2023-04-29T15:05:29.885Z,5.38
2023-04-29T15:10:26.899Z,10.15
2023-04-29T15:15:24.388Z,5.72
2023-04-29T15:20:21.330Z,6.25
2023-04-29T15:25:18.320Z,5.05
2023-04-29T15:30:16.064Z,6.32
2023-04-29T15:35:13.801Z,7.18
2023-04-29T15:40:11.695Z,6.20
2023-04-29T15:45:09.716Z,7.35
2023-04-29T15:50:08.920Z,5.85
2023-04-29T15:55:07.336Z,4.30
2023-04-29T16:00:04.778Z,6.53
2023-04-29T16:05:02.503Z,6.45
2023-04-29T16:09:59.460Z,5.68
2023-04-29T16:14:57.092Z,4.85
2023-04-29T16:19:56.471Z,8.15
2023-04-29T16:24:53.482Z,8.73
2023-04-29T16:29:50.441Z,7.60
2023-04-29T16:34:50.853Z,8.35
2023-04-29T16:39:48.261Z,7.68
2023-04-29T16:44:46.329Z,9.38
2023-04-29T16:49:43.564Z,4.03
2023-04-29T16:54:41.264Z,7.55
2023-04-29T16:59:38.101Z,6.90
2023-04-29T17:04:35.420Z,6.40
2023-04-29T17:09:32.729Z,6.65
2023-04-29T17:14:30.362Z,8.25
2023-04-29T17:19:27.409Z,6.55
2023-04-29T17:24:24.832Z,10.30
2023-04-29T17:29:21.805Z,8.48
2023-04-29T17:34:23.203Z,8.98
2023-04-29T17:39:20.220Z,6.95
2023-04-29T17:44:17.053Z,11.90
2023-04-29T17:49:13.766Z,19.98
2023-04-29T17:54:14.180Z,13.65
2023-04-29T17:59:12.970Z,10.25
2023-04-29T18:04:09.886Z,8.85
2023-04-29T18:09:12.540Z,10.82
2023-04-29T18:14:10.323Z,9.55
2023-04-29T18:19:07.150Z,11.40
2023-04-29T18:24:04.554Z,12.27
2023-04-29T18:29:01.762Z,6.90
2023-04-29T18:33:59.333Z,9.50
2023-04-29T18:38:58.833Z,11.05
2023-04-29T18:43:55.641Z,13.63
2023-04-29T18:48:52.402Z,12.38
2023-04-29T18:53:50.072Z,12.18
2023-04-29T18:58:49.150Z,12.05
2023-04-29T19:03:45.954Z,15.43
2023-04-29T19:08:45.858Z,10.77
2023-04-29T19:13:47.122Z,15.38
2023-04-29T19:18:46.607Z,11.10
2023-04-29T19:23:43.696Z,8.15
2023-04-29T19:28:40.494Z,10.25
2023-04-29T19:33:37.968Z,10.65
2023-04-29T19:38:34.781Z,9.45
2023-04-29T19:43:31.709Z,14.00
2023-04-29T19:48:28.590Z,9.68
2023-04-29T19:53:26.361Z,8.27
2023-04-29T19:58:23.166Z,13.00
2023-04-29T20:03:20.805Z,7.50
2023-04-29T20:08:17.759Z,8.55
2023-04-29T20:13:15.558Z,7.47
2023-04-29T20:18:13.508Z,11.07
2023-04-29T20:23:10.266Z,11.57
2023-04-29T20:28:08.386Z,7.85
2023-04-29T20:33:07.092Z,8.52
2023-04-29T20:38:06.671Z,8.00
2023-04-29T20:43:04.400Z,8.10
2023-04-29T20:48:01.286Z,7.20
2023-04-29T20:52:58.864Z,5.22
2023-04-29T20:57:55.972Z,6.95
2023-04-29T21:02:52.772Z,8.18
2023-04-29T21:07:52.704Z,9.93
2023-04-29T21:12:50.376Z,6.10
2023-04-29T21:17:47.208Z,10.38
2023-04-29T21:22:44.625Z,9.73
2023-04-29T21:27:41.364Z,6.47
2023-04-29T21:32:38.903Z,6.53
2023-04-29T21:37:35.855Z,5.25
2023-04-29T21:42:34.136Z,6.57
2023-04-29T21:47:31.182Z,11.20
2023-04-29T21:52:30.670Z,7.10
2023-04-29T21:57:42.616Z,10.45
2023-04-29T22:02:42.771Z,8.18
2023-04-29T22:07:40.461Z,11.88
2023-04-29T22:12:37.269Z,14.52
2023-04-29T22:17:34.132Z,14.27
2023-04-29T22:22:31.069Z,11.18
2023-04-29T22:27:28.789Z,11.25
2023-04-29T22:32:25.623Z,12.73
2023-04-29T22:37:22.371Z,20.83
2023-04-29T22:42:19.169Z,12.55
2023-04-29T22:47:16.706Z,11.50
2023-04-29T22:52:13.461Z,12.68
2023-04-29T22:57:10.151Z,10.75
2023-04-29T23:02:07.039Z,10.43
2023-04-29T23:07:04.507Z,8.45
2023-04-29T23:12:02.150Z,10.90
2023-04-29T23:16:58.958Z,12.45
2023-04-29T23:21:55.882Z,10.77
2023-04-29T23:26:53.371Z,14.30
2023-04-29T23:31:50.366Z,18.20
2023-04-29T23:36:47.157Z,11.60
2023-04-29T23:41:43.931Z,10.75
2023-04-29T23:46:41.420Z,13.57
2023-04-29T23:51:38.347Z,12.23
2023-04-29T23:56:35.195Z,13.00
